Time;durP1;ratioP1;P1;durP2;ratioP2;P2;SDS_P1;SDS_P2;PMS_P1;PMS_P2;Temp;Humidity;BMP_temperature;BMP_pressure;BME280_temperature;BME280_humidity;BME280_pressure;Samples;Min_cycle;Max_cycle;Signal;HPM_P1;HPM_P2
2022/11/30 00:02:02;;;;;;;53.30;30.42;;;;;;;;;;5132547;27;20059;-72
2022/11/30 00:04:28;;;;;;;50.97;30.33;;;;;;;;;;5133793;27;20100;-72
2022/11/30 00:06:56;;;;;;;53.22;29.27;;;;;;;;;;5132416;27;20050;-73
2022/11/30 00:09:23;;;;;;;64.25;32.42;;;;;;;;;;5131402;27;20051;-72
2022/11/30 00:11:49;;;;;;;70.28;34.22;;;;;;;;;;5132378;27;20035;-72
2022/11/30 00:14:15;;;;;;;78.07;36.85;;;;;;;;;;5133419;27;20510;-72
2022/11/30 00:16:41;;;;;;;87.15;37.33;;;;;;;;;;5133795;27;20050;-72
2022/11/30 00:19:07;;;;;;;88.45;36.70;;;;;;;;;;5134262;27;20155;-72
2022/11/30 00:21:33;;;;;;;92.95;37.55;;;;;;;;;;5131822;27;20487;-72
2022/11/30 00:23:59;;;;;;;94.20;37.90;;;;;;;;;;5133008;27;20607;-72
2022/11/30 00:26:25;;;;;;;91.80;37.80;;;;;;;;;;5133945;27;20506;-72
2022/11/30 00:28:51;;;;;;;91.63;36.15;;;;;;;;;;5133244;27;20537;-72
2022/11/30 00:31:18;;;;;;;90.03;37.05;;;;;;;;;;5133210;27;20050;-72
2022/11/30 00:33:45;;;;;;;86.32;37.70;;;;;;;;;;5113993;27;20050;-72
2022/11/30 00:36:12;;;;;;;78.55;35.63;;;;;;;;;;5131962;27;20035;-72
2022/11/30 00:38:39;;;;;;;77.88;35.03;;;;;;;;;;5131626;27;20047;-72
2022/11/30 00:41:05;;;;;;;66.57;33.95;;;;;;;;;;5133135;27;20039;-72
2022/11/30 00:43:31;;;;;;;72.10;33.67;;;;;;;;;;5132171;27;20035;-72
2022/11/30 00:45:57;;;;;;;71.22;34.08;;;;;;;;;;5132424;28;20082;-72
2022/11/30 00:48:24;;;;;;;67.10;32.47;;;;;;;;;;5125915;28;20371;-72
2022/11/30 00:50:50;;;;;;;70.00;34.00;;;;;;;;;;5128943;28;20048;-72
2022/11/30 00:53:16;;;;;;;64.40;33.42;;;;;;;;;;5133276;28;20110;-72
2022/11/30 00:55:43;;;;;;;67.20;33.92;;;;;;;;;;5133099;28;20051;-72
2022/11/30 00:58:09;;;;;;;67.45;32.78;;;;;;;;;;5132273;28;20078;-72
2022/11/30 01:00:35;;;;;;;67.95;33.33;;;;;;;;;;5125190;28;20035;-72
2022/11/30 01:03:04;;;;;;;62.47;33.30;;;;;;;;;;5133550;28;20458;-72
2022/11/30 01:05:32;;;;;;;68.30;34.53;;;;;;;;;;5114513;28;20043;-72
2022/11/30 01:08:01;;;;;;;67.97;33.83;;;;;;;;;;5131390;28;20098;-72
2022/11/30 01:10:28;;;;;;;63.30;33.95;;;;;;;;;;5130239;28;20500;-72
2022/11/30 01:12:54;;;;;;;63.38;32.85;;;;;;;;;;5120986;28;20047;-72
2022/11/30 01:15:20;;;;;;;65.43;34.30;;;;;;;;;;5129446;28;20039;-72
2022/11/30 01:17:46;;;;;;;58.20;32.70;;;;;;;;;;5133553;28;20520;-72
2022/11/30 01:20:12;;;;;;;56.10;33.13;;;;;;;;;;5133278;28;20047;-72
2022/11/30 01:22:38;;;;;;;53.47;31.30;;;;;;;;;;5132691;28;20505;-72
2022/11/30 01:25:04;;;;;;;50.63;30.75;;;;;;;;;;5132749;28;20043;-72
2022/11/30 01:27:30;;;;;;;52.25;30.33;;;;;;;;;;5133418;28;20495;-72
2022/11/30 01:29:56;;;;;;;47.20;28.95;;;;;;;;;;5132951;28;20035;-71
2022/11/30 01:32:22;;;;;;;48.75;28.83;;;;;;;;;;5132642;28;20122;-72
2022/11/30 01:34:48;;;;;;;46.15;28.27;;;;;;;;;;5133330;28;20497;-72
2022/11/30 01:37:14;;;;;;;43.15;26.90;;;;;;;;;;5133314;28;20047;-72
2022/11/30 01:39:41;;;;;;;48.55;29.80;;;;;;;;;;5133163;28;20035;-72
2022/11/30 01:42:12;;;;;;;47.25;29.27;;;;;;;;;;5131680;28;20039;-72
2022/11/30 01:44:55;;;;;;;49.33;29.75;;;;;;;;;;5132033;27;20035;-72
2022/11/30 01:47:44;;;;;;;48.55;30.45;;;;;;;;;;5119921;27;20043;-72
2022/11/30 01:50:17;;;;;;;50.28;30.23;;;;;;;;;;5092468;27;20066;-72
2022/11/30 01:52:46;;;;;;;49.72;30.50;;;;;;;;;;5135124;27;20050;-72
2022/11/30 01:55:15;;;;;;;49.00;29.95;;;;;;;;;;5136473;27;20046;-72
2022/11/30 01:57:46;;;;;;;52.13;30.10;;;;;;;;;;5135296;27;20512;-72
2022/11/30 02:00:13;;;;;;;51.30;30.85;;;;;;;;;;5134492;27;20566;-72
2022/11/30 02:02:47;;;;;;;50.58;30.00;;;;;;;;;;5133041;27;20097;-72
2022/11/30 02:05:13;;;;;;;51.20;30.75;;;;;;;;;;5117630;27;20039;-72
2022/11/30 02:07:40;;;;;;;51.85;30.63;;;;;;;;;;5130372;27;20453;-72
2022/11/30 02:10:06;;;;;;;51.30;30.02;;;;;;;;;;5132403;27;20035;-71
2022/11/30 02:12:39;;;;;;;47.05;28.58;;;;;;;;;;5130390;27;20062;-72
2022/11/30 02:15:08;;;;;;;45.00;28.88;;;;;;;;;;5135426;27;20464;-71
2022/11/30 02:17:58;;;;;;;48.75;29.23;;;;;;;;;;5134985;27;20409;-72
2022/11/30 02:20:35;;;;;;;50.53;29.58;;;;;;;;;;5126901;27;20427;-72
2022/11/30 02:23:16;;;;;;;54.88;29.95;;;;;;;;;;5135823;27;20047;-72
2022/11/30 02:25:51;;;;;;;49.10;29.15;;;;;;;;;;5135704;27;20050;-72
2022/11/30 02:28:20;;;;;;;53.42;30.48;;;;;;;;;;5100464;27;20059;-72
2022/11/30 02:30:48;;;;;;;56.63;32.40;;;;;;;;;;5135062;27;21926;-72
2022/11/30 02:33:16;;;;;;;53.38;30.40;;;;;;;;;;5133342;27;20035;-72
2022/11/30 02:35:43;;;;;;;54.80;31.30;;;;;;;;;;5133628;27;20090;-72
2022/11/30 02:38:10;;;;;;;55.70;31.15;;;;;;;;;;5133233;27;20043;-71
2022/11/30 02:40:37;;;;;;;54.15;31.30;;;;;;;;;;5132473;27;20036;-72
2022/11/30 02:43:04;;;;;;;53.13;30.60;;;;;;;;;;5135295;27;20134;-72
2022/11/30 02:45:37;;;;;;;55.15;31.23;;;;;;;;;;5134112;27;20047;-72
2022/11/30 02:48:11;;;;;;;55.50;31.67;;;;;;;;;;5133939;27;20046;-72
2022/11/30 02:50:51;;;;;;;55.65;31.08;;;;;;;;;;5131399;27;20035;-72
2022/11/30 02:53:17;;;;;;;52.33;30.33;;;;;;;;;;5135561;27;20044;-72
2022/11/30 02:55:43;;;;;;;54.92;30.73;;;;;;;;;;5135183;27;20087;-72
2022/11/30 02:58:09;;;;;;;54.72;29.83;;;;;;;;;;5133856;27;20039;-71
2022/11/30 03:00:35;;;;;;;54.30;30.88;;;;;;;;;;5131920;27;20043;-72
2022/11/30 03:03:01;;;;;;;52.05;29.48;;;;;;;;;;5133989;27;20059;-72
2022/11/30 03:05:27;;;;;;;54.63;31.17;;;;;;;;;;5133624;27;20382;-72
2022/11/30 03:07:53;;;;;;;51.20;30.80;;;;;;;;;;5133297;27;20050;-71
2022/11/30 03:10:19;;;;;;;53.83;30.45;;;;;;;;;;5134309;27;20043;-72
2022/11/30 03:12:45;;;;;;;51.80;30.08;;;;;;;;;;5114069;27;20051;-72
2022/11/30 03:15:11;;;;;;;51.90;29.52;;;;;;;;;;5130062;27;20039;-72
2022/11/30 03:17:37;;;;;;;50.35;30.25;;;;;;;;;;5135005;27;20046;-72
2022/11/30 03:20:04;;;;;;;48.63;29.05;;;;;;;;;;5134113;27;20092;-72
2022/11/30 03:22:33;;;;;;;52.55;29.75;;;;;;;;;;5134458;27;20040;-72
2022/11/30 03:24:59;;;;;;;51.58;29.83;;;;;;;;;;5135090;27;20039;-72
2022/11/30 03:27:25;;;;;;;51.97;29.55;;;;;;;;;;5133271;27;20039;-72
2022/11/30 03:29:51;;;;;;;55.28;29.80;;;;;;;;;;5134307;27;20619;-72
2022/11/30 03:32:18;;;;;;;50.72;29.75;;;;;;;;;;5134298;27;20482;-72
2022/11/30 03:34:44;;;;;;;51.35;30.05;;;;;;;;;;5134568;27;20035;-72
2022/11/30 03:37:10;;;;;;;53.40;30.85;;;;;;;;;;5132158;27;20043;-72
2022/11/30 03:39:36;;;;;;;53.78;30.88;;;;;;;;;;5134033;27;20050;-72
2022/11/30 03:42:02;;;;;;;50.47;30.92;;;;;;;;;;5132648;27;20072;-72
2022/11/30 03:44:28;;;;;;;57.00;30.95;;;;;;;;;;5133973;27;20050;-72
2022/11/30 03:46:54;;;;;;;56.20;30.77;;;;;;;;;;5133376;27;20046;-72
2022/11/30 03:49:20;;;;;;;54.90;31.55;;;;;;;;;;5130595;27;20035;-72
2022/11/30 03:51:47;;;;;;;55.28;31.50;;;;;;;;;;5134059;27;20047;-72
2022/11/30 03:54:13;;;;;;;54.08;31.30;;;;;;;;;;5133977;27;20409;-72
2022/11/30 03:56:40;;;;;;;58.90;31.55;;;;;;;;;;5132732;27;20092;-72
2022/11/30 03:59:06;;;;;;;63.55;32.85;;;;;;;;;;5134080;27;20054;-72
2022/11/30 04:01:32;;;;;;;62.78;32.90;;;;;;;;;;5127891;27;20070;-72
2022/11/30 04:03:58;;;;;;;60.53;32.42;;;;;;;;;;5131996;27;20035;-72
2022/11/30 04:06:24;;;;;;;60.58;32.50;;;;;;;;;;5132523;27;20047;-72
2022/11/30 04:08:50;;;;;;;60.25;33.13;;;;;;;;;;5132942;27;20043;-72
2022/11/30 04:11:16;;;;;;;56.75;32.38;;;;;;;;;;5133713;27;20078;-72
2022/11/30 04:13:42;;;;;;;52.80;30.05;;;;;;;;;;5132750;27;20043;-72
2022/11/30 04:16:09;;;;;;;46.17;28.77;;;;;;;;;;5133528;27;20486;-72
2022/11/30 04:18:36;;;;;;;46.05;27.73;;;;;;;;;;5133478;27;20537;-72
2022/11/30 04:21:02;;;;;;;41.72;27.17;;;;;;;;;;5132250;27;20454;-72
2022/11/30 04:23:30;;;;;;;44.55;28.10;;;;;;;;;;5133541;27;20069;-72
2022/11/30 04:25:56;;;;;;;39.22;25.48;;;;;;;;;;5133481;27;20031;-72
2022/11/30 04:28:22;;;;;;;40.72;24.83;;;;;;;;;;5133335;27;20065;-72
2022/11/30 04:30:48;;;;;;;33.45;22.48;;;;;;;;;;5132945;27;20049;-72
2022/11/30 04:33:15;;;;;;;39.08;25.40;;;;;;;;;;5133544;27;20390;-72
2022/11/30 04:35:43;;;;;;;40.47;25.58;;;;;;;;;;5129722;27;20047;-71
2022/11/30 04:38:09;;;;;;;42.47;26.95;;;;;;;;;;5130858;27;20088;-72
2022/11/30 04:40:39;;;;;;;42.00;25.17;;;;;;;;;;5133306;27;20114;-71
2022/11/30 04:43:05;;;;;;;40.15;25.70;;;;;;;;;;5132717;27;20126;-71
2022/11/30 04:45:31;;;;;;;39.60;24.25;;;;;;;;;;5133308;27;20148;-71
2022/11/30 04:47:57;;;;;;;39.00;24.67;;;;;;;;;;5132699;28;20416;-71
2022/11/30 04:50:23;;;;;;;39.63;24.08;;;;;;;;;;5132485;28;20104;-72
2022/11/30 04:52:49;;;;;;;37.67;24.58;;;;;;;;;;5131270;28;20046;-72
2022/11/30 04:55:18;;;;;;;39.70;25.73;;;;;;;;;;5133045;28;20443;-72
2022/11/30 04:57:47;;;;;;;39.47;24.38;;;;;;;;;;5133069;28;20060;-71
2022/11/30 05:00:14;;;;;;;39.55;24.80;;;;;;;;;;5126387;28;20088;-72
2022/11/30 05:02:40;;;;;;;39.33;24.98;;;;;;;;;;5132866;28;20051;-72
2022/11/30 05:05:06;;;;;;;41.83;25.02;;;;;;;;;;5131940;28;20043;-72
2022/11/30 05:07:33;;;;;;;40.50;25.40;;;;;;;;;;5130389;28;20486;-71
2022/11/30 05:09:59;;;;;;;41.65;25.95;;;;;;;;;;5111224;28;20454;-72
2022/11/30 05:12:25;;;;;;;37.88;23.88;;;;;;;;;;5120586;28;20043;-72
2022/11/30 05:14:51;;;;;;;39.67;25.45;;;;;;;;;;5125487;28;20044;-72
2022/11/30 05:17:17;;;;;;;40.83;25.05;;;;;;;;;;5125094;28;20039;-72
2022/11/30 05:19:43;;;;;;;40.22;25.70;;;;;;;;;;5133225;27;20421;-71
2022/11/30 05:22:09;;;;;;;39.50;25.27;;;;;;;;;;5136558;27;20536;-72
2022/11/30 05:24:35;;;;;;;40.30;25.50;;;;;;;;;;5128753;27;20043;-72
2022/11/30 05:27:01;;;;;;;40.08;24.88;;;;;;;;;;5130712;27;20043;-72
2022/11/30 05:29:27;;;;;;;38.08;24.30;;;;;;;;;;5136370;27;20046;-72
2022/11/30 05:31:53;;;;;;;44.10;25.02;;;;;;;;;;5136711;27;20070;-72
2022/11/30 05:34:19;;;;;;;39.95;24.38;;;;;;;;;;5136785;27;20046;-72
2022/11/30 05:36:45;;;;;;;40.65;25.08;;;;;;;;;;5134324;27;20054;-72
2022/11/30 05:39:11;;;;;;;40.20;25.65;;;;;;;;;;5135080;27;20058;-72
2022/11/30 05:41:37;;;;;;;38.78;23.83;;;;;;;;;;5135701;27;20035;-71
2022/11/30 05:44:03;;;;;;;38.28;23.63;;;;;;;;;;5134156;27;20039;-72
2022/11/30 05:46:30;;;;;;;40.55;24.65;;;;;;;;;;5134375;27;20042;-72
2022/11/30 05:48:56;;;;;;;39.47;23.67;;;;;;;;;;5132301;27;20039;-72
2022/11/30 05:51:22;;;;;;;36.72;24.27;;;;;;;;;;5135423;27;20039;-72
2022/11/30 05:53:48;;;;;;;38.13;24.00;;;;;;;;;;5136780;27;20398;-71
2022/11/30 05:56:15;;;;;;;35.95;23.63;;;;;;;;;;5135616;27;20047;-72
2022/11/30 05:58:42;;;;;;;41.08;24.80;;;;;;;;;;5135220;27;20039;-72
2022/11/30 06:01:16;;;;;;;38.67;24.25;;;;;;;;;;5134010;27;20114;-72
2022/11/30 06:03:42;;;;;;;40.05;24.48;;;;;;;;;;5135359;27;20059;-72
2022/11/30 06:06:08;;;;;;;40.97;24.17;;;;;;;;;;5134746;27;20058;-72
2022/11/30 06:08:34;;;;;;;38.47;24.23;;;;;;;;;;5134417;27;20046;-72
2022/11/30 06:11:01;;;;;;;37.53;23.63;;;;;;;;;;5133504;27;20096;-72
2022/11/30 06:13:27;;;;;;;39.20;23.65;;;;;;;;;;5129686;27;20447;-72
2022/11/30 06:15:53;;;;;;;37.80;22.63;;;;;;;;;;5136012;27;20043;-72
2022/11/30 06:18:19;;;;;;;35.20;22.00;;;;;;;;;;5135698;27;20147;-72
2022/11/30 06:20:45;;;;;;;38.50;23.67;;;;;;;;;;5114641;27;20149;-71
2022/11/30 06:23:11;;;;;;;39.63;23.75;;;;;;;;;;5134688;27;20051;-71
2022/11/30 06:25:37;;;;;;;35.58;22.50;;;;;;;;;;5135641;27;20051;-72
2022/11/30 06:28:03;;;;;;;34.65;21.92;;;;;;;;;;5135899;27;20050;-72
2022/11/30 06:30:29;;;;;;;37.13;22.63;;;;;;;;;;5135338;27;20509;-72
2022/11/30 06:32:55;;;;;;;36.25;22.52;;;;;;;;;;5135391;27;20047;-72
2022/11/30 06:35:21;;;;;;;35.75;22.30;;;;;;;;;;5135218;27;20050;-71
2022/11/30 06:37:47;;;;;;;37.10;22.52;;;;;;;;;;5116000;27;20035;-71
2022/11/30 06:40:13;;;;;;;31.95;21.15;;;;;;;;;;5133567;27;20217;-72
2022/11/30 06:42:40;;;;;;;33.72;20.73;;;;;;;;;;5133000;27;20039;-71
2022/11/30 06:45:06;;;;;;;31.23;19.88;;;;;;;;;;5127618;27;20562;-71
2022/11/30 06:47:32;;;;;;;28.13;19.17;;;;;;;;;;5132241;27;20035;-72
2022/11/30 06:49:58;;;;;;;26.83;18.08;;;;;;;;;;5134566;27;20054;-72
2022/11/30 06:52:24;;;;;;;27.23;18.80;;;;;;;;;;5123484;27;20043;-72
2022/11/30 06:54:51;;;;;;;26.33;17.60;;;;;;;;;;5132316;27;20566;-71
2022/11/30 06:57:17;;;;;;;29.45;18.42;;;;;;;;;;5126759;27;20049;-72
2022/11/30 06:59:43;;;;;;;26.35;17.17;;;;;;;;;;5121860;27;20482;-72
2022/11/30 07:02:13;;;;;;;28.33;19.17;;;;;;;;;;5115058;28;20514;-72
2022/11/30 07:04:39;;;;;;;27.90;18.02;;;;;;;;;;5124397;27;20038;-72
2022/11/30 07:07:06;;;;;;;27.65;19.92;;;;;;;;;;5135103;27;20043;-72
2022/11/30 07:09:32;;;;;;;33.20;21.42;;;;;;;;;;5125645;27;20517;-71
2022/11/30 07:11:58;;;;;;;36.78;22.10;;;;;;;;;;5127018;27;20081;-72
2022/11/30 07:14:25;;;;;;;30.15;20.85;;;;;;;;;;5121968;27;20039;-71
2022/11/30 07:16:51;;;;;;;31.05;21.05;;;;;;;;;;5100743;28;20505;-72
2022/11/30 07:19:17;;;;;;;29.90;20.02;;;;;;;;;;5127526;27;20526;-71
2022/11/30 07:21:43;;;;;;;29.63;20.30;;;;;;;;;;5134897;27;20043;-72
2022/11/30 07:26:56;;;;;;;30.85;19.48;;;;;;;;;;5123735;27;20059;-72
2022/11/30 07:29:22;;;;;;;29.85;19.13;;;;;;;;;;5133730;27;20118;-72
2022/11/30 07:31:51;;;;;;;31.52;20.63;;;;;;;;;;5134523;27;20069;-72
2022/11/30 07:34:18;;;;;;;29.77;19.35;;;;;;;;;;5115760;27;20047;-72
2022/11/30 07:36:44;;;;;;;30.00;19.77;;;;;;;;;;5122752;27;20490;-72
2022/11/30 07:39:11;;;;;;;30.80;21.15;;;;;;;;;;5130595;27;20043;-72
2022/11/30 07:41:37;;;;;;;31.30;20.65;;;;;;;;;;5131545;27;20100;-72
2022/11/30 07:44:04;;;;;;;28.67;19.52;;;;;;;;;;5129496;27;20103;-72
2022/11/30 07:46:32;;;;;;;32.80;21.58;;;;;;;;;;5129817;27;20051;-72
2022/11/30 07:48:58;;;;;;;32.90;21.98;;;;;;;;;;5127366;27;20083;-72
2022/11/30 07:51:24;;;;;;;32.05;21.38;;;;;;;;;;5115139;27;20655;-72
2022/11/30 07:53:51;;;;;;;29.17;20.40;;;;;;;;;;5125979;27;20035;-72
2022/11/30 07:56:18;;;;;;;28.45;18.88;;;;;;;;;;5131007;27;20043;-72
2022/11/30 07:58:44;;;;;;;27.60;17.33;;;;;;;;;;5131585;27;20064;-72
2022/11/30 08:01:11;;;;;;;23.92;17.17;;;;;;;;;;5109743;28;20043;-72
2022/11/30 08:03:38;;;;;;;24.52;17.38;;;;;;;;;;5122376;27;20397;-72
2022/11/30 08:06:06;;;;;;;23.50;17.08;;;;;;;;;;5133818;27;20083;-72
2022/11/30 08:08:33;;;;;;;24.35;16.85;;;;;;;;;;5129710;27;20494;-72
2022/11/30 08:10:59;;;;;;;22.95;16.38;;;;;;;;;;5118843;27;20035;-72
2022/11/30 08:13:25;;;;;;;22.40;16.20;;;;;;;;;;5132048;27;20043;-72
2022/11/30 08:15:51;;;;;;;21.17;15.05;;;;;;;;;;5132071;27;20394;-72
2022/11/30 08:18:17;;;;;;;21.08;15.20;;;;;;;;;;5123549;27;20051;-72
2022/11/30 08:20:44;;;;;;;20.42;15.30;;;;;;;;;;5122558;27;20041;-72
2022/11/30 08:23:11;;;;;;;22.45;16.40;;;;;;;;;;5125094;27;20509;-72
2022/11/30 08:25:39;;;;;;;23.58;17.15;;;;;;;;;;5117394;27;20446;-72
2022/11/30 08:28:05;;;;;;;23.98;16.98;;;;;;;;;;5118637;27;20394;-71
2022/11/30 08:30:32;;;;;;;20.95;15.88;;;;;;;;;;5124327;27;20415;-72
2022/11/30 08:32:58;;;;;;;25.13;18.77;;;;;;;;;;5127415;27;20066;-72
2022/11/30 08:35:24;;;;;;;25.35;17.10;;;;;;;;;;5129247;27;21737;-71
2022/11/30 08:37:50;;;;;;;23.73;16.88;;;;;;;;;;5123924;27;20057;-72
2022/11/30 08:40:16;;;;;;;24.73;18.02;;;;;;;;;;5125283;27;20084;-72
2022/11/30 08:42:42;;;;;;;25.05;17.38;;;;;;;;;;5123967;27;20039;-71
2022/11/30 08:45:08;;;;;;;24.55;17.75;;;;;;;;;;5126540;27;20044;-72
2022/11/30 08:47:34;;;;;;;26.42;18.05;;;;;;;;;;5128372;27;20048;-72
2022/11/30 08:50:00;;;;;;;25.50;18.20;;;;;;;;;;5127574;28;20047;-72
2022/11/30 08:52:27;;;;;;;27.75;18.90;;;;;;;;;;5120437;28;20055;-71
2022/11/30 08:54:53;;;;;;;27.35;19.00;;;;;;;;;;5127334;27;20044;-72
2022/11/30 08:57:20;;;;;;;27.67;18.77;;;;;;;;;;5123558;27;20092;-72
2022/11/30 08:59:46;;;;;;;25.85;18.50;;;;;;;;;;5130377;27;20050;-72
2022/11/30 09:02:16;;;;;;;26.38;18.60;;;;;;;;;;5129774;27;20055;-72
2022/11/30 09:04:42;;;;;;;25.98;18.60;;;;;;;;;;5131997;27;20039;-71
2022/11/30 09:07:08;;;;;;;23.92;17.20;;;;;;;;;;5132516;27;20047;-72
2022/11/30 09:09:34;;;;;;;24.95;17.67;;;;;;;;;;5125774;27;20112;-72
2022/11/30 09:12:00;;;;;;;26.35;18.13;;;;;;;;;;5135297;27;20047;-71
2022/11/30 09:14:26;;;;;;;27.25;18.35;;;;;;;;;;5134428;27;20043;-72
2022/11/30 09:16:53;;;;;;;26.55;18.50;;;;;;;;;;5129939;27;20067;-72
2022/11/30 09:19:19;;;;;;;29.35;19.17;;;;;;;;;;5131718;27;20046;-72
2022/11/30 09:21:45;;;;;;;27.75;19.63;;;;;;;;;;5136226;27;20047;-72
2022/11/30 09:24:11;;;;;;;26.30;18.15;;;;;;;;;;5134293;27;20153;-71
2022/11/30 09:26:37;;;;;;;26.60;17.85;;;;;;;;;;5122848;27;20047;-72
2022/11/30 09:29:03;;;;;;;25.13;18.48;;;;;;;;;;5128900;27;20039;-72
2022/11/30 09:31:29;;;;;;;26.10;18.90;;;;;;;;;;5125963;27;20047;-72
2022/11/30 09:33:56;;;;;;;25.13;17.50;;;;;;;;;;5128478;27;20072;-72
2022/11/30 09:36:25;;;;;;;25.60;17.20;;;;;;;;;;5127862;27;20054;-72
2022/11/30 09:38:52;;;;;;;26.10;17.67;;;;;;;;;;5128185;27;20043;-72
2022/11/30 09:41:31;;;;;;;25.38;18.38;;;;;;;;;;5104597;28;20054;-71
2022/11/30 09:44:16;;;;;;;26.08;17.63;;;;;;;;;;5130345;27;20089;-72
2022/11/30 09:46:45;;;;;;;27.58;18.52;;;;;;;;;;5135828;27;20042;-72
2022/11/30 09:49:14;;;;;;;27.42;18.20;;;;;;;;;;5127301;27;20058;-72
2022/11/30 09:51:47;;;;;;;24.73;18.20;;;;;;;;;;5125219;27;20550;-72
2022/11/30 09:54:20;;;;;;;26.65;18.10;;;;;;;;;;5133839;27;20562;-72
2022/11/30 09:56:46;;;;;;;25.65;18.40;;;;;;;;;;5119865;27;20562;-72
2022/11/30 09:59:20;;;;;;;26.20;18.25;;;;;;;;;;5119604;27;20035;-72
2022/11/30 10:01:47;;;;;;;26.30;18.30;;;;;;;;;;5128945;27;20881;-72
2022/11/30 10:04:26;;;;;;;27.25;18.25;;;;;;;;;;5132469;27;20536;-72
2022/11/30 10:06:55;;;;;;;26.17;17.95;;;;;;;;;;5127292;27;20108;-71
2022/11/30 10:09:27;;;;;;;29.27;20.15;;;;;;;;;;5126662;27;20046;-71
2022/11/30 10:11:53;;;;;;;26.30;17.83;;;;;;;;;;5124009;27;20477;-71
2022/11/30 10:14:28;;;;;;;26.45;19.48;;;;;;;;;;5126403;27;20039;-71
2022/11/30 10:17:03;;;;;;;29.42;19.35;;;;;;;;;;5120854;27;20518;-72
2022/11/30 10:19:38;;;;;;;27.75;19.38;;;;;;;;;;5120650;27;20043;-71
2022/11/30 10:22:18;;;;;;;25.58;18.60;;;;;;;;;;5125563;27;20098;-72
2022/11/30 10:24:44;;;;;;;28.58;19.50;;;;;;;;;;5129607;27;20062;-72
2022/11/30 10:27:17;;;;;;;27.38;19.65;;;;;;;;;;5127570;27;20489;-70
2022/11/30 10:29:43;;;;;;;27.20;19.38;;;;;;;;;;5127391;27;20039;-72
2022/11/30 10:32:20;;;;;;;30.95;20.33;;;;;;;;;;5125121;27;20175;-72
2022/11/30 10:34:58;;;;;;;27.70;19.75;;;;;;;;;;5128195;27;20039;-72
2022/11/30 10:37:33;;;;;;;30.90;19.85;;;;;;;;;;5127985;27;20445;-72
2022/11/30 10:39:59;;;;;;;33.08;21.45;;;;;;;;;;5129793;27;20035;-72
2022/11/30 10:42:37;;;;;;;34.40;22.98;;;;;;;;;;5115514;27;20047;-73
2022/11/30 10:45:08;;;;;;;33.88;22.42;;;;;;;;;;5123183;27;20485;-72
2022/11/30 10:47:36;;;;;;;41.05;25.50;;;;;;;;;;5134443;27;20051;-72
2022/11/30 10:50:04;;;;;;;39.42;25.17;;;;;;;;;;5134606;27;20126;-72
2022/11/30 10:52:34;;;;;;;38.15;24.13;;;;;;;;;;5133106;27;20123;-72
2022/11/30 10:55:00;;;;;;;40.97;24.65;;;;;;;;;;5134571;27;20076;-73
2022/11/30 10:57:31;;;;;;;41.60;25.33;;;;;;;;;;5127993;27;20038;-72
2022/11/30 10:59:59;;;;;;;43.60;25.90;;;;;;;;;;5128289;27;20528;-73
2022/11/30 11:02:39;;;;;;;49.03;27.35;;;;;;;;;;5131610;27;20066;-72
2022/11/30 11:05:25;;;;;;;52.05;29.52;;;;;;;;;;5128791;27;20089;-72
2022/11/30 11:07:51;;;;;;;54.42;29.63;;;;;;;;;;5131130;27;20046;-72
2022/11/30 11:10:30;;;;;;;51.92;29.58;;;;;;;;;;5134533;27;20402;-72
2022/11/30 11:12:56;;;;;;;47.95;27.98;;;;;;;;;;5134394;27;20042;-73
2022/11/30 11:15:24;;;;;;;44.17;26.98;;;;;;;;;;5134778;27;20192;-73
2022/11/30 11:17:50;;;;;;;43.88;25.20;;;;;;;;;;5133853;27;20050;-73
2022/11/30 11:20:28;;;;;;;45.63;28.25;;;;;;;;;;5134008;27;20043;-72
2022/11/30 11:22:54;;;;;;;44.45;26.98;;;;;;;;;;5134662;27;20083;-73
2022/11/30 11:25:21;;;;;;;45.70;28.50;;;;;;;;;;5134539;27;20393;-72
2022/11/30 11:27:55;;;;;;;47.55;27.98;;;;;;;;;;5134654;27;20046;-73
2022/11/30 11:30:27;;;;;;;47.90;29.20;;;;;;;;;;5134352;27;20039;-72
2022/11/30 11:33:03;;;;;;;55.53;31.92;;;;;;;;;;5134317;27;20031;-72
2022/11/30 11:35:37;;;;;;;51.80;31.05;;;;;;;;;;5128819;27;20398;-71
2022/11/30 11:38:17;;;;;;;59.38;33.95;;;;;;;;;;5133331;27;20096;-72
2022/11/30 11:41:00;;;;;;;59.33;35.53;;;;;;;;;;5134040;27;20505;-72
2022/11/30 11:43:27;;;;;;;64.80;33.38;;;;;;;;;;5132694;27;20046;-72
2022/11/30 11:45:55;;;;;;;59.17;32.63;;;;;;;;;;5115483;27;20100;-72
2022/11/30 11:48:32;;;;;;;58.75;32.90;;;;;;;;;;5133956;27;20035;-72
2022/11/30 11:50:59;;;;;;;58.40;32.83;;;;;;;;;;5134150;27;20083;-72
2022/11/30 11:53:44;;;;;;;57.42;32.90;;;;;;;;;;5133717;27;20047;-72
2022/11/30 11:56:25;;;;;;;57.33;31.02;;;;;;;;;;5133739;27;20046;-72
2022/11/30 11:58:51;;;;;;;59.63;32.47;;;;;;;;;;5133809;27;20152;-72
2022/11/30 12:01:36;;;;;;;57.92;32.45;;;;;;;;;;5131941;27;20571;-71
2022/11/30 12:04:17;;;;;;;69.47;34.67;;;;;;;;;;5133597;27;20103;-72
2022/11/30 12:06:44;;;;;;;69.03;35.90;;;;;;;;;;5132779;27;20584;-72
2022/11/30 12:09:14;;;;;;;60.03;30.65;;;;;;;;;;5133537;27;20130;-72
2022/11/30 12:11:45;;;;;;;66.88;35.38;;;;;;;;;;5133648;27;20047;-72
2022/11/30 12:14:12;;;;;;;74.15;36.42;;;;;;;;;;5133544;27;20043;-72
2022/11/30 12:16:43;;;;;;;71.13;34.90;;;;;;;;;;5126681;27;20039;-72
2022/11/30 12:19:15;;;;;;;74.13;37.78;;;;;;;;;;5094503;28;20490;-72
2022/11/30 12:21:41;;;;;;;75.40;36.30;;;;;;;;;;5113183;28;20047;-72
2022/11/30 12:24:26;;;;;;;68.22;32.88;;;;;;;;;;5112925;28;20047;-72
2022/11/30 12:26:55;;;;;;;68.88;34.60;;;;;;;;;;5112714;28;20571;-72
2022/11/30 12:29:21;;;;;;;75.45;36.63;;;;;;;;;;5116800;27;20511;-72
2022/11/30 12:31:58;;;;;;;79.68;38.97;;;;;;;;;;5132108;27;20047;-72
2022/11/30 12:34:24;;;;;;;81.97;39.00;;;;;;;;;;5133237;27;20039;-72
2022/11/30 12:36:53;;;;;;;87.00;40.75;;;;;;;;;;5133184;27;20051;-72
2022/11/30 12:39:31;;;;;;;82.65;39.65;;;;;;;;;;5133005;27;20171;-72
2022/11/30 12:42:05;;;;;;;81.82;38.83;;;;;;;;;;5132992;27;20047;-72
2022/11/30 12:44:43;;;;;;;96.05;41.95;;;;;;;;;;5133192;27;20074;-72
2022/11/30 12:47:19;;;;;;;101.47;43.75;;;;;;;;;;5127667;27;20127;-71
2022/11/30 12:50:17;;;;;;;88.47;39.10;;;;;;;;;;5126471;27;20569;-71
2022/11/30 12:52:52;;;;;;;73.63;35.05;;;;;;;;;;5095495;28;20490;-72
2022/11/30 12:55:27;;;;;;;78.68;37.15;;;;;;;;;;5131966;28;20127;-71
2022/11/30 12:57:59;;;;;;;70.40;33.85;;;;;;;;;;5110917;28;20073;-72
2022/11/30 13:00:25;;;;;;;;;;;;;;;;;;5133357;28;20404;-72
2022/11/30 13:02:51;;;;;;;69.85;36.05;;;;;;;;;;5119719;28;20397;-72
2022/11/30 13:05:21;;;;;;;73.45;37.10;;;;;;;;;;5116089;28;20039;-72
2022/11/30 13:07:51;;;;;;;81.55;40.50;;;;;;;;;;5114467;28;20043;-72
2022/11/30 13:10:17;;;;;;;76.03;36.97;;;;;;;;;;5114396;28;20401;-73
2022/11/30 13:12:45;;;;;;;86.63;41.10;;;;;;;;;;5132924;28;20047;-73
2022/11/30 13:15:19;;;;;;;87.93;42.22;;;;;;;;;;5125085;28;20039;-72
2022/11/30 13:17:46;;;;;;;81.63;39.40;;;;;;;;;;5131206;28;20039;-72
2022/11/30 13:20:18;;;;;;;76.53;37.65;;;;;;;;;;5129938;28;20035;-73
2022/11/30 13:22:55;;;;;;;82.43;41.40;;;;;;;;;;5112059;28;20039;-73
2022/11/30 13:25:43;;;;;;;73.38;36.80;;;;;;;;;;5121939;28;20071;-73
2022/11/30 13:28:16;;;;;;;68.95;37.22;;;;;;;;;;5117653;28;20043;-73
2022/11/30 13:30:42;;;;;;;75.25;39.72;;;;;;;;;;5124358;28;20424;-73
2022/11/30 13:33:27;;;;;;;71.43;39.08;;;;;;;;;;5128170;28;20089;-73
2022/11/30 13:35:53;;;;;;;73.28;41.53;;;;;;;;;;5124765;28;20395;-73
2022/11/30 13:38:21;;;;;;;78.38;42.42;;;;;;;;;;5118740;28;20128;-72
2022/11/30 13:41:00;;;;;;;76.88;44.10;;;;;;;;;;5127456;27;20039;-72
2022/11/30 13:43:28;;;;;;;77.18;40.72;;;;;;;;;;5129843;27;20039;-73
2022/11/30 13:46:07;;;;;;;77.18;43.65;;;;;;;;;;5106218;27;20118;-73
2022/11/30 13:48:36;;;;;;;75.18;41.17;;;;;;;;;;5135498;27;20043;-72
2022/11/30 13:51:02;;;;;;;85.05;42.03;;;;;;;;;;5134244;27;20047;-73
2022/11/30 13:53:32;;;;;;;76.93;41.03;;;;;;;;;;5118109;27;20036;-73
2022/11/30 13:56:04;;;;;;;75.70;40.55;;;;;;;;;;5120734;27;20126;-73
2022/11/30 13:58:30;;;;;;;;;;;;;;;;;;5128692;27;20272;-73
2022/11/30 14:01:20;;;;;;;81.45;42.10;;;;;;;;;;5136246;27;19919;-74
2022/11/30 14:04:05;;;;;;;71.65;37.28;;;;;;;;;;5136305;27;20035;-73
2022/11/30 14:06:40;;;;;;;67.00;35.70;;;;;;;;;;5135919;27;20039;-73
2022/11/30 14:09:12;;;;;;;71.38;39.20;;;;;;;;;;5135563;27;20497;-73
2022/11/30 14:11:45;;;;;;;75.45;36.80;;;;;;;;;;5129558;27;20039;-72
2022/11/30 14:14:29;;;;;;;77.13;41.50;;;;;;;;;;5131268;27;20039;-71
2022/11/30 14:16:56;;;;;;;85.57;42.47;;;;;;;;;;5119218;27;20112;-73
2022/11/30 14:19:22;;;;;;;82.57;42.45;;;;;;;;;;5115509;27;20078;-71
2022/11/30 14:21:48;;;;;;;71.88;37.40;;;;;;;;;;5134438;27;20043;-71
2022/11/30 14:24:19;;;;;;;68.88;39.55;;;;;;;;;;5135719;27;20047;-68
2022/11/30 14:26:46;;;;;;;72.85;39.25;;;;;;;;;;5122223;27;20051;-70
2022/11/30 14:29:17;;;;;;;74.15;38.80;;;;;;;;;;5121942;27;20039;-69
2022/11/30 14:31:52;;;;;;;74.78;38.13;;;;;;;;;;5134078;27;20043;-69